Time;durP1;ratioP1;P1;durP2;ratioP2;P2;SDS_P1;SDS_P2;PMS_P1;PMS_P2;Temp;Humidity;BMP_temperature;BMP_pressure;BME280_temperature;BME280_humidity;BME280_pressure;Samples;Min_cycle;Max_cycle;Signal;HPM_P1;HPM_P2
2022/11/01 00:01:53;;;;;;;9.10;1.52;;;;;;;21.27;48.06;101574.53;4196539;28;20435;-72
2022/11/01 00:03:54;;;;;;;;;;;;;;;21.27;48.06;101580.09;4199583;28;20479;-72
2022/11/01 00:05:56;;;;;;;3.90;1.38;;;;;;;21.22;47.76;101563.38;4184901;28;19928;-72
2022/11/01 00:07:57;;;;;;;5.05;1.40;;;;;;;21.31;47.93;101572.09;4199238;28;20044;-72
2022/11/01 00:09:58;;;;;;;4.93;2.13;;;;;;;21.31;48.02;101564.56;4199692;28;20082;-72
2022/11/01 00:12:02;;;;;;;5.03;2.20;;;;;;;21.31;48.18;101574.88;4190979;28;20094;-72
2022/11/01 00:14:04;;;;;;;3.38;1.80;;;;;;;21.30;47.95;101568.44;4186438;28;20045;-73
2022/11/01 00:16:06;;;;;;;3.78;1.73;;;;;;;21.30;48.11;101585.13;4197131;28;20036;-72
2022/11/01 00:18:07;;;;;;;8.43;1.50;;;;;;;21.25;47.92;101568.38;4187945;28;20029;-72
2022/11/01 00:20:09;;;;;;;4.55;1.30;;;;;;;21.20;48.10;101562.78;4197600;28;20449;-73
2022/11/01 00:22:21;;;;;;;3.80;1.63;;;;;;;21.18;48.03;101553.03;4198633;28;20081;-72
2022/11/01 00:24:23;;;;;;;5.78;1.90;;;;;;;21.25;47.92;101564.75;4197924;28;20110;-72
2022/11/01 00:26:28;;;;;;;3.38;1.50;;;;;;;21.28;48.05;101562.28;4200055;28;20430;-73
2022/11/01 00:28:29;;;;;;;4.00;1.40;;;;;;;21.25;48.01;101557.25;4198985;28;20166;-73
2022/11/01 00:30:31;;;;;;;6.63;1.23;;;;;;;21.31;47.98;101574.88;4199264;28;20032;-73
2022/11/01 00:32:32;;;;;;;5.65;2.30;;;;;;;21.21;48.19;101550.56;4198803;28;20062;-73
2022/11/01 00:34:33;;;;;;;4.88;2.00;;;;;;;21.30;48.08;101565.66;4197309;28;20036;-72
2022/11/01 00:36:35;;;;;;;4.13;1.75;;;;;;;21.27;48.15;101555.03;4198954;28;20048;-73
2022/11/01 00:38:37;;;;;;;4.95;1.45;;;;;;;21.29;47.99;101554.75;4196024;28;20430;-74
2022/11/01 00:40:38;;;;;;;6.82;1.40;;;;;;;21.29;48.21;101550.03;4186353;28;20075;-74
2022/11/01 00:42:39;;;;;;;3.78;1.55;;;;;;;21.28;48.26;101551.16;4184801;28;20098;-74
2022/11/01 00:44:41;;;;;;;5.63;1.58;;;;;;;21.23;48.23;101548.34;4193443;28;20029;-73
2022/11/01 00:46:42;;;;;;;2.38;1.35;;;;;;;21.30;48.09;101548.94;4194709;28;20036;-71
2022/11/01 00:48:43;;;;;;;4.03;1.20;;;;;;;21.28;48.00;101544.75;4198316;28;20041;-72
2022/11/01 00:50:47;;;;;;;3.88;1.60;;;;;;;21.27;48.06;101546.69;4198850;28;20036;-72
2022/11/01 00:52:51;;;;;;;1.70;1.52;;;;;;;21.15;48.22;101526.56;4196604;28;20098;-74
2022/11/01 00:54:52;;;;;;;3.65;1.55;;;;;;;20.75;48.12;101461.19;4198088;28;20427;-73
2022/11/01 00:56:56;;;;;;;5.70;2.05;;;;;;;21.30;48.26;101551.72;4191551;28;20478;-73
2022/11/01 00:58:58;;;;;;;3.20;1.52;;;;;;;21.28;47.96;101545.56;4194550;28;20040;-73
2022/11/01 01:00:59;;;;;;;5.07;1.45;;;;;;;21.28;48.21;101542.78;4198672;28;20048;-73
2022/11/01 01:03:00;;;;;;;3.25;1.52;;;;;;;21.34;48.10;101545.63;4186122;28;20049;-73
2022/11/01 01:05:05;;;;;;;3.25;1.20;;;;;;;21.35;47.99;101552.88;4190861;28;20760;-72
2022/11/01 01:07:07;;;;;;;1.48;1.38;;;;;;;21.37;48.05;101556.25;4197005;28;20032;-72
2022/11/01 01:09:12;;;;;;;2.15;1.30;;;;;;;21.39;48.08;101559.59;4186556;28;20040;-73
2022/11/01 01:11:14;;;;;;;2.85;1.38;;;;;;;21.16;47.99;101517.09;4188899;28;20537;-73
2022/11/01 01:13:15;;;;;;;1.50;1.10;;;;;;;21.42;48.03;101561.84;4197558;28;20094;-72
2022/11/01 01:15:17;;;;;;;2.35;1.35;;;;;;;21.28;48.00;101547.53;4196195;28;20032;-74
2022/11/01 01:17:24;;;;;;;3.08;1.50;;;;;;;21.44;48.06;101573.53;4182438;28;20045;-74
2022/11/01 01:19:25;;;;;;;3.33;1.38;;;;;;;21.44;47.69;101579.09;4181586;28;20091;-71
2022/11/01 01:21:26;;;;;;;1.50;1.30;;;;;;;21.47;47.73;101586.94;4182086;28;20102;-71
2022/11/01 01:23:28;;;;;;;4.18;2.08;;;;;;;20.69;48.15;101455.88;4189919;28;20040;-75
2022/11/01 01:25:32;;;;;;;4.00;1.67;;;;;;;21.48;47.76;101580.25;4196346;28;20040;-75
2022/11/01 01:27:33;;;;;;;2.57;1.43;;;;;;;21.39;48.06;101559.59;4183103;28;20057;-74
2022/11/01 01:29:36;;;;;;;2.85;1.35;;;;;;;21.50;47.73;101566.91;4190484;28;20687;-73
2022/11/01 01:31:37;;;;;;;2.92;1.33;;;;;;;21.51;48.04;101554.66;4192541;28;20037;-73
2022/11/01 01:33:42;;;;;;;3.75;1.42;;;;;;;21.50;47.69;101555.78;4195502;28;20098;-73
2022/11/01 01:35:51;;;;;;;3.63;1.30;;;;;;;21.46;47.58;101535.13;4190862;28;20110;-72
2022/11/01 01:37:52;;;;;;;2.40;1.45;;;;;;;21.53;48.08;101549.63;4181718;28;20110;-73
2022/11/01 01:39:54;;;;;;;2.30;1.30;;;;;;;21.53;47.81;101541.28;4196602;28;20102;-72
2022/11/01 01:41:55;;;;;;;2.80;1.42;;;;;;;21.54;47.97;101542.97;4196895;28;20094;-72
2022/11/01 01:43:56;;;;;;;3.63;1.60;;;;;;;21.52;47.75;101531.25;4185241;28;20033;-72
2022/11/01 01:45:58;;;;;;;1.90;1.30;;;;;;;21.54;47.87;101543.81;4182050;28;20029;-73
2022/11/01 01:48:25;;;;;;;4.65;1.50;;;;;;;21.53;48.08;101550.50;4190683;28;20062;-73
2022/11/01 01:50:36;;;;;;;1.38;1.25;;;;;;;21.57;47.93;101554.41;4198848;28;20625;-71
2022/11/01 01:52:47;;;;;;;2.55;1.20;;;;;;;21.58;48.03;101558.03;4198119;28;20059;-73
2022/11/01 01:54:52;;;;;;;2.08;1.42;;;;;;;21.53;47.91;101550.50;4196720;28;20036;-72
2022/11/01 01:56:53;;;;;;;;;;;;;;;21.59;47.93;101547.75;4198256;28;20028;-74
2022/11/01 01:59:01;;;;;;;3.47;1.40;;;;;;;21.33;47.70;101510.56;4196887;28;19963;-72
2022/11/01 02:01:03;;;;;;;2.45;1.45;;;;;;;21.67;47.85;101555.56;4189129;28;20094;-72
2022/11/01 02:03:05;;;;;;;3.33;1.42;;;;;;;21.65;47.87;101552.22;4187007;28;20036;-72
2022/11/01 02:05:30;;;;;;;3.03;1.75;;;;;;;21.65;47.93;101555.84;4213412;28;20097;-70
2022/11/01 02:07:31;;;;;;;4.05;1.35;;;;;;;21.53;47.70;101538.50;4195738;28;20082;-73
2022/11/01 02:09:35;;;;;;;2.42;1.55;;;;;;;21.46;47.90;101527.63;4196435;28;20532;-71
2022/11/01 02:11:36;;;;;;;1.90;1.40;;;;;;;21.64;47.92;101556.94;4196111;28;20033;-71
2022/11/01 02:13:38;;;;;;;2.78;1.45;;;;;;;21.65;48.01;101550.25;4197545;28;20105;-72
2022/11/01 02:16:11;;;;;;;4.93;1.40;;;;;;;21.65;47.84;101535.50;4196675;28;20090;-73
2022/11/01 02:18:35;;;;;;;3.85;1.13;;;;;;;21.55;47.86;101508.44;4170164;28;20086;-72
2022/11/01 02:20:57;;;;;;;3.20;1.30;;;;;;;21.69;47.96;101548.63;4185404;28;20040;-72
2022/11/01 02:23:16;;;;;;;5.82;1.40;;;;;;;21.67;47.91;101539.72;4181116;28;20510;-71
2022/11/01 02:25:35;;;;;;;2.13;1.40;;;;;;;21.71;47.83;101540.81;4190966;28;20480;-71
2022/11/01 02:27:59;;;;;;;5.38;1.40;;;;;;;21.69;48.06;101543.03;4195329;28;20048;-73
2022/11/01 02:30:23;;;;;;;2.38;1.60;;;;;;;21.72;47.86;101545.31;4186407;28;20554;-73
2022/11/01 02:33:01;;;;;;;4.70;1.90;;;;;;;21.71;47.92;101549.16;4180576;28;20045;-73
2022/11/01 02:35:08;;;;;;;4.20;1.08;;;;;;;21.73;47.70;101541.41;4189082;28;20044;-72
2022/11/01 02:37:12;;;;;;;2.75;1.50;;;;;;;21.75;47.99;101552.25;4200739;28;20471;-73
2022/11/01 02:39:28;;;;;;;1.90;1.15;;;;;;;21.74;47.73;101551.41;4201073;28;20124;-73
2022/11/01 02:41:35;;;;;;;;;;;;;;;21.73;47.96;101557.28;4203361;28;20036;-72
2022/11/01 02:43:47;;;;;;;3.15;1.33;;;;;;;21.82;47.79;101570.41;4200939;28;19916;-73
2022/11/01 02:45:52;;;;;;;1.58;1.13;;;;;;;21.77;47.77;101573.19;4202428;28;20044;-73
2022/11/01 02:48:00;;;;;;;6.75;1.95;;;;;;;21.59;47.88;101548.56;4198234;28;20564;-70
2022/11/01 02:50:06;;;;;;;4.03;1.30;;;;;;;21.79;48.13;101582.09;4198938;28;20033;-70
2022/11/01 02:52:12;;;;;;;2.28;1.20;;;;;;;21.77;48.01;101577.91;4199512;28;20028;-71
2022/11/01 02:54:39;;;;;;;4.75;1.45;;;;;;;21.73;48.19;101583.19;4195573;28;20024;-70
2022/11/01 02:56:40;;;;;;;2.85;1.33;;;;;;;21.64;47.97;101568.09;4198489;28;20048;-70
2022/11/01 02:58:42;;;;;;;4.57;1.40;;;;;;;21.74;47.83;101584.84;4200850;28;20078;-69
2022/11/01 03:00:46;;;;;;;2.55;1.30;;;;;;;21.73;48.01;101582.34;4201947;28;20024;-68
2022/11/01 03:03:07;;;;;;;3.00;1.10;;;;;;;21.71;47.95;101579.81;4193567;28;20044;-69
2022/11/01 03:05:39;;;;;;;6.60;1.63;;;;;;;21.42;48.17;101531.22;4188372;28;20091;-69
2022/11/01 03:07:43;;;;;;;2.58;1.33;;;;;;;21.72;47.92;101583.47;4195638;28;20647;-69
2022/11/01 03:09:44;;;;;;;2.75;1.13;;;;;;;21.71;48.10;101577.03;4189853;28;20052;-68
2022/11/01 03:11:53;;;;;;;3.05;1.23;;;;;;;21.70;47.92;101583.72;4189800;28;20419;-68
2022/11/01 03:14:00;;;;;;;2.83;0.98;;;;;;;21.70;47.74;101572.56;4188175;28;20040;-69
2022/11/01 03:16:08;;;;;;;2.72;1.35;;;;;;;21.70;48.01;101572.56;4193035;28;20041;-68
2022/11/01 03:18:17;;;;;;;2.22;1.40;;;;;;;21.52;47.86;101539.63;4196283;28;20098;-69
2022/11/01 03:20:48;;;;;;;3.90;1.40;;;;;;;21.71;47.91;101573.41;4198821;28;20032;-70
2022/11/01 03:22:56;;;;;;;2.42;1.40;;;;;;;21.73;47.74;101565.63;4186974;28;20136;-70
2022/11/01 03:25:43;;;;;;;2.42;1.20;;;;;;;21.71;47.80;101557.53;4186115;28;20103;-69
2022/11/01 03:27:46;;;;;;;3.42;1.30;;;;;;;21.56;47.60;101536.00;4190453;28;20049;-69
2022/11/01 03:29:55;;;;;;;2.97;1.20;;;;;;;21.69;47.86;101559.75;4196567;28;20041;-69
2022/11/01 03:32:01;;;;;;;2.45;1.10;;;;;;;21.75;47.97;101568.97;4196991;28;20044;-68
2022/11/01 03:34:12;;;;;;;4.78;1.90;;;;;;;21.63;48.04;101543.31;4192106;28;20041;-70
2022/11/01 03:36:18;;;;;;;1.95;1.42;;;;;;;21.75;48.04;101575.38;4185714;28;20071;-69
2022/11/01 03:38:27;;;;;;;2.75;1.38;;;;;;;21.75;47.95;101564.22;4187022;28;20106;-70
2022/11/01 03:40:31;;;;;;;3.83;1.63;;;;;;;21.73;47.83;101560.06;4202584;28;20161;-70
2022/11/01 03:42:33;;;;;;;1.90;1.20;;;;;;;21.53;48.12;101528.22;4203792;28;20028;-71
2022/11/01 03:44:40;;;;;;;2.65;1.17;;;;;;;21.76;48.03;101565.94;4219378;28;20105;-70
2022/11/01 03:46:42;;;;;;;2.92;1.50;;;;;;;21.76;47.75;101563.16;4206117;28;20082;-69
2022/11/01 03:48:45;;;;;;;1.65;1.08;;;;;;;21.76;48.01;101560.38;4199018;28;20049;-69
2022/11/01 03:50:51;;;;;;;3.55;1.20;;;;;;;21.54;47.66;101529.06;4195911;28;20090;-69
2022/11/01 03:52:56;;;;;;;5.15;1.50;;;;;;;21.63;48.16;101538.56;4198869;28;20491;-70
2022/11/01 03:55:16;;;;;;;2.30;1.63;;;;;;;21.76;48.14;101563.16;4199977;28;20022;-69
2022/11/01 03:57:18;;;;;;;2.55;1.48;;;;;;;21.76;47.86;101560.38;4192526;28;20533;-70
2022/11/01 03:59:19;;;;;;;1.80;1.00;;;;;;;21.75;48.00;101561.44;4199774;28;20036;-69
2022/11/01 04:01:20;;;;;;;1.95;1.20;;;;;;;21.69;47.97;101558.94;4200461;28;20082;-70
2022/11/01 04:03:25;;;;;;;2.90;1.00;;;;;;;21.72;47.90;101559.22;4199486;28;20434;-71
2022/11/01 04:05:28;;;;;;;3.25;1.50;;;;;;;21.70;48.23;101550.28;4198863;28;20377;-69
2022/11/01 04:07:30;;;;;;;4.85;1.25;;;;;;;21.69;48.17;101553.34;4198264;28;20078;-70
2022/11/01 04:09:31;;;;;;;3.20;1.40;;;;;;;21.66;48.16;101554.72;4197212;28;20036;-71
2022/11/01 04:11:32;;;;;;;1.90;1.15;;;;;;;21.59;48.19;101548.56;4199340;28;20040;-69
2022/11/01 04:13:34;;;;;;;2.90;1.30;;;;;;;21.66;48.01;101551.09;4186791;28;20037;-69
2022/11/01 04:20:41;;;;;;;1.65;1.15;;;;;;;21.64;48.09;101545.81;4216498;28;20429;-69
2022/11/01 04:22:42;;;;;;;1.58;1.00;;;;;;;21.61;48.03;101532.41;4203315;28;20113;-71
2022/11/01 04:24:43;;;;;;;3.45;1.30;;;;;;;21.63;47.92;101538.56;4199365;28;20099;-72
2022/11/01 04:26:44;;;;;;;2.95;1.38;;;;;;;21.63;48.25;101533.00;4198861;28;20044;-71
2022/11/01 04:28:55;;;;;;;2.22;1.10;;;;;;;21.62;48.14;101536.88;4198914;28;20048;-70
2022/11/01 04:30:56;;;;;;;1.42;1.05;;;;;;;21.62;48.08;101539.66;4198587;28;20094;-70
2022/11/01 04:32:58;;;;;;;1.60;1.08;;;;;;;21.62;48.48;101533.25;4199220;28;20483;-70
2022/11/01 04:34:59;;;;;;;2.35;1.60;;;;;;;21.62;48.24;101530.47;4198500;28;20082;-70
2022/11/01 04:37:00;;;;;;;2.33;1.20;;;;;;;21.61;48.38;101524.06;4198873;28;20044;-70
2022/11/01 04:39:05;;;;;;;2.40;1.45;;;;;;;21.58;48.24;101521.84;4198996;28;20505;-69
2022/11/01 04:41:07;;;;;;;2.53;1.42;;;;;;;21.57;48.20;101522.94;4199092;28;20029;-73
2022/11/01 04:43:09;;;;;;;5.82;1.30;;;;;;;21.57;48.17;101520.13;4199100;28;20044;-71
2022/11/01 04:45:10;;;;;;;2.90;1.40;;;;;;;21.61;48.06;101535.19;4198678;28;20457;-71
2022/11/01 04:47:11;;;;;;;3.20;1.35;;;;;;;21.60;48.41;101522.41;4198938;28;20463;-71
2022/11/01 04:49:13;;;;;;;3.35;1.58;;;;;;;21.43;48.22;101491.13;4198892;28;20166;-71
2022/11/01 04:51:14;;;;;;;1.83;1.38;;;;;;;21.57;48.28;101517.34;4199333;28;20036;-71
2022/11/01 04:53:15;;;;;;;3.78;1.20;;;;;;;21.57;48.09;101528.50;4198727;28;20041;-71
2022/11/01 04:55:19;;;;;;;2.70;1.23;;;;;;;21.46;48.23;101510.06;4198578;28;20044;-71
2022/11/01 04:57:23;;;;;;;2.75;1.48;;;;;;;21.56;48.18;101515.69;4197754;28;20044;-71
2022/11/01 04:59:25;;;;;;;1.58;1.00;;;;;;;21.57;48.39;101525.72;4198112;28;20094;-71
2022/11/01 05:01:26;;;;;;;4.50;1.48;;;;;;;21.55;48.24;101514.84;4198755;28;20078;-71
2022/11/01 05:03:27;;;;;;;2.50;1.13;;;;;;;21.56;48.11;101507.34;4198575;28;20028;-71
2022/11/01 05:05:29;;;;;;;2.13;1.38;;;;;;;21.57;48.46;101522.94;4197832;28;20044;-70
2022/11/01 05:07:30;;;;;;;2.90;1.50;;;;;;;21.57;48.00;101531.28;4199007;28;20545;-71
2022/11/01 05:09:31;;;;;;;1.83;1.25;;;;;;;21.56;48.32;101515.69;4202408;28;20048;-73
2022/11/01 05:11:41;;;;;;;2.33;1.30;;;;;;;21.45;48.32;101494.50;4198553;28;20098;-73
2022/11/01 05:13:42;;;;;;;3.80;1.40;;;;;;;21.56;48.14;101510.13;4198531;28;20471;-73
2022/11/01 05:15:43;;;;;;;3.78;1.35;;;;;;;21.55;47.96;101508.44;4197623;28;20459;-72
2022/11/01 05:17:45;;;;;;;2.72;1.05;;;;;;;21.55;48.37;101508.44;4198079;28;20403;-73
2022/11/01 05:19:49;;;;;;;1.88;1.20;;;;;;;21.54;48.33;101499.25;4197678;28;20028;-73
2022/11/01 05:21:50;;;;;;;2.15;1.08;;;;;;;21.54;48.22;101495.66;4196518;28;20040;-73
2022/11/01 05:23:54;;;;;;;2.75;1.17;;;;;;;21.48;48.04;101486.41;4198037;28;20041;-73
2022/11/01 05:25:56;;;;;;;1.50;1.20;;;;;;;21.42;48.26;101497.81;4197651;28;20032;-72
2022/11/01 05:27:59;;;;;;;2.72;1.15;;;;;;;21.36;48.07;101488.59;4199146;28;20447;-73
2022/11/01 05:30:00;;;;;;;5.30;1.40;;;;;;;21.54;48.05;101523.50;4192415;28;20097;-73
2022/11/01 05:32:02;;;;;;;1.23;1.00;;;;;;;21.30;48.21;101479.34;4197871;28;20028;-71
2022/11/01 05:34:03;;;;;;;3.42;1.20;;;;;;;21.54;48.02;101509.56;4198027;28;20082;-71
2022/11/01 05:36:05;;;;;;;1.15;1.05;;;;;;;21.53;48.20;101514.31;4197099;28;20044;-72
2022/11/01 05:38:06;;;;;;;1.88;1.20;;;;;;;21.53;48.18;101528.22;4198014;28;20036;-71
2022/11/01 05:40:08;;;;;;;3.30;1.20;;;;;;;21.52;48.02;101532.09;4198084;28;20036;-71
2022/11/01 05:42:12;;;;;;;2.45;1.10;;;;;;;21.38;48.27;101502.22;4198402;28;20049;-71
2022/11/01 05:44:13;;;;;;;2.17;1.20;;;;;;;21.53;48.03;101519.00;4196958;28;20455;-72
2022/11/01 05:46:15;;;;;;;1.27;1.00;;;;;;;21.53;48.13;101516.22;4201502;28;20459;-72
2022/11/01 05:48:16;;;;;;;3.67;1.80;;;;;;;21.52;48.29;101514.56;4197990;28;20094;-71
2022/11/01 05:50:20;;;;;;;1.40;0.90;;;;;;;21.53;48.21;101521.78;4197579;28;20097;-71
2022/11/01 05:52:21;;;;;;;2.00;1.27;;;;;;;21.50;48.27;101527.91;4204613;28;20028;-71
2022/11/01 05:54:23;;;;;;;2.45;1.15;;;;;;;21.31;48.13;101485.78;4214767;28;20306;-71
2022/11/01 05:56:24;;;;;;;2.45;1.20;;;;;;;21.53;48.00;101528.22;4214363;28;20040;-71
2022/11/01 05:58:29;;;;;;;1.98;1.20;;;;;;;21.52;48.30;101542.41;4213388;28;20097;-71
2022/11/01 06:00:32;;;;;;;1.95;1.30;;;;;;;21.52;48.10;101537.66;4199167;28;20423;-71
2022/11/01 06:02:33;;;;;;;2.10;1.10;;;;;;;21.53;48.13;101539.38;4199701;28;20098;-71
2022/11/01 06:04:37;;;;;;;1.17;1.02;;;;;;;21.53;48.10;101524.56;4199846;28;20040;-71
2022/11/01 06:06:38;;;;;;;2.33;1.10;;;;;;;21.51;47.98;101512.88;4197753;28;20105;-71
2022/11/01 06:08:42;;;;;;;1.70;1.10;;;;;;;21.52;48.02;101520.13;4197453;28;20098;-71
2022/11/01 06:10:43;;;;;;;2.05;1.42;;;;;;;21.42;48.32;101498.63;4195205;28;20102;-70
2022/11/01 06:12:45;;;;;;;2.20;1.30;;;;;;;21.53;48.04;101527.34;4197802;28;20028;-71
2022/11/01 06:14:46;;;;;;;1.92;1.10;;;;;;;21.54;48.04;101523.50;4197551;28;20110;-71
2022/11/01 06:16:47;;;;;;;2.67;1.33;;;;;;;21.53;48.12;101521.78;4197907;28;20094;-72
2022/11/01 06:19:04;;;;;;;1.85;1.20;;;;;;;21.51;48.01;101512.88;4197604;28;20078;-71
2022/11/01 06:21:05;;;;;;;1.42;1.20;;;;;;;21.42;48.42;101493.06;4197264;28;20090;-71
2022/11/01 06:23:09;;;;;;;1.50;0.95;;;;;;;21.53;48.09;101521.78;4197851;28;20029;-74
2022/11/01 06:25:12;;;;;;;2.22;1.27;;;;;;;20.99;48.16;101427.41;4197414;28;20033;-71
2022/11/01 06:27:14;;;;;;;1.25;1.15;;;;;;;21.54;48.18;101523.50;4197320;28;20033;-71
2022/11/01 06:29:20;;;;;;;1.20;1.10;;;;;;;21.52;48.32;101520.94;4197257;28;20098;-71
2022/11/01 06:31:22;;;;;;;3.38;1.20;;;;;;;21.52;48.13;101514.56;4197679;28;20028;-70
2022/11/01 06:33:23;;;;;;;2.08;1.13;;;;;;;21.52;48.20;101531.25;4205510;28;20044;-71
2022/11/01 06:35:26;;;;;;;3.40;1.35;;;;;;;21.52;48.44;101522.91;4213858;28;20101;-73
2022/11/01 06:37:40;;;;;;;1.48;1.00;;;;;;;21.30;47.94;101490.50;4213934;28;20036;-71
2022/11/01 06:39:41;;;;;;;1.88;1.05;;;;;;;21.52;48.37;101536.84;4214078;28;20099;-70
2022/11/01 06:41:42;;;;;;;2.08;1.25;;;;;;;21.52;48.30;101536.84;4214113;28;20093;-70
2022/11/01 06:43:44;;;;;;;1.90;1.30;;;;;;;21.38;48.23;101507.81;4214184;28;20106;-70
2022/11/01 06:45:45;;;;;;;1.60;1.17;;;;;;;21.52;48.18;101520.13;4204373;28;20044;-70
2022/11/01 06:47:46;;;;;;;2.58;1.42;;;;;;;21.52;47.96;101531.25;4200997;28;20044;-71
2022/11/01 06:49:51;;;;;;;1.77;1.30;;;;;;;21.52;48.30;101522.91;4197048;28;20045;-70
2022/11/01 06:51:52;;;;;;;1.67;1.20;;;;;;;21.53;48.09;101527.34;4198906;28;20106;-71
2022/11/01 06:53:53;;;;;;;2.05;1.05;;;;;;;21.52;48.29;101534.88;4199428;28;20028;-70
2022/11/01 06:55:57;;;;;;;2.75;1.30;;;;;;;21.51;48.04;101518.44;4197078;28;20472;-70
2022/11/01 06:58:02;;;;;;;1.20;1.10;;;;;;;21.51;48.35;101524.84;4197218;28;20411;-71
2022/11/01 07:00:05;;;;;;;3.70;1.20;;;;;;;21.52;48.48;101532.09;4196965;28;20324;-70
2022/11/01 07:02:08;;;;;;;1.92;1.40;;;;;;;21.38;48.26;101502.22;4199741;28;20044;-70
2022/11/01 07:04:10;;;;;;;1.40;1.10;;;;;;;21.52;48.21;101526.53;4198533;28;20090;-71
2022/11/01 07:06:14;;;;;;;0.98;0.82;;;;;;;21.50;48.21;101519.56;4196978;28;20044;-71
2022/11/01 07:08:15;;;;;;;1.48;1.20;;;;;;;21.51;48.24;101519.28;4208134;28;20105;-71
2022/11/01 07:10:16;;;;;;;3.17;1.20;;;;;;;21.51;48.18;101510.09;4197235;28;20093;-71
2022/11/01 07:12:18;;;;;;;3.42;1.25;;;;;;;21.51;48.11;101507.31;4197199;28;20036;-70
2022/11/01 07:14:19;;;;;;;1.38;0.95;;;;;;;21.50;48.38;101500.06;4197229;28;20033;-71
2022/11/01 07:16:20;;;;;;;1.65;1.00;;;;;;;21.51;48.38;101498.97;4196481;28;20448;-69
2022/11/01 07:18:22;;;;;;;2.55;1.30;;;;;;;21.49;48.41;101506.75;4197187;28;20071;-70
2022/11/01 07:20:25;;;;;;;1.58;1.20;;;;;;;21.47;48.22;101492.25;4196950;28;20036;-70
2022/11/01 07:22:26;;;;;;;1.83;1.38;;;;;;;21.50;48.02;101483.38;4197217;28;20106;-70
2022/11/01 07:24:27;;;;;;;1.30;1.20;;;;;;;21.50;48.13;101491.72;4200173;28;20082;-70
2022/11/01 07:26:31;;;;;;;2.13;1.20;;;;;;;21.29;48.26;101458.16;4199859;28;20110;-70
2022/11/01 07:28:32;;;;;;;2.50;1.38;;;;;;;21.49;48.17;101493.66;4200331;28;20048;-71
2022/11/01 07:30:34;;;;;;;1.65;1.30;;;;;;;21.51;48.37;101501.75;4199218;28;20056;-70
2022/11/01 07:32:35;;;;;;;1.92;1.20;;;;;;;21.43;48.30;101482.78;4203738;28;21895;-71
2022/11/01 07:34:39;;;;;;;1.70;1.05;;;;;;;21.51;48.20;101490.59;4200235;28;20533;-71
2022/11/01 07:36:41;;;;;;;1.48;1.00;;;;;;;21.47;48.13;101489.47;4199334;28;20418;-71
2022/11/01 07:38:48;;;;;;;3.58;1.33;;;;;;;21.50;48.15;101489.78;4195635;28;20041;-69
2022/11/01 07:40:53;;;;;;;1.23;1.05;;;;;;;21.50;48.35;101484.19;4197449;28;20106;-71
2022/11/01 07:42:57;;;;;;;1.27;1.08;;;;;;;21.47;48.15;101489.47;4199540;28;20094;-70
2022/11/01 07:44:58;;;;;;;1.88;1.05;;;;;;;21.51;48.11;101485.88;4199429;28;20407;-71
2022/11/01 07:46:59;;;;;;;2.05;1.33;;;;;;;21.50;48.30;101484.19;4203691;28;20024;-71
2022/11/01 07:49:03;;;;;;;2.28;1.25;;;;;;;21.47;48.28;101472.75;4199111;28;20024;-71
2022/11/01 07:51:06;;;;;;;2.35;1.50;;;;;;;21.50;48.44;101477.81;4198804;28;20040;-71
2022/11/01 07:53:12;;;;;;;1.52;1.02;;;;;;;21.51;48.49;101476.69;4199315;28;20024;-71
2022/11/01 07:55:14;;;;;;;2.03;1.05;;;;;;;21.48;48.05;101474.44;4198547;28;20041;-72
2022/11/01 07:57:21;;;;;;;1.50;1.30;;;;;;;21.49;48.42;101487.28;4183145;28;20040;-71
2022/11/01 07:59:22;;;;;;;1.67;1.20;;;;;;;21.50;48.58;101469.44;4198443;28;20044;-70
2022/11/01 08:01:23;;;;;;;1.42;1.08;;;;;;;21.42;48.12;101453.25;4199756;28;20094;-72
2022/11/01 08:03:25;;;;;;;1.90;1.20;;;;;;;21.49;48.18;101468.63;4198028;28;20044;-70
2022/11/01 08:05:29;;;;;;;1.10;1.00;;;;;;;21.42;48.45;101464.38;4198637;28;20045;-71
2022/11/01 08:07:31;;;;;;;2.25;1.20;;;;;;;21.49;48.45;101467.78;4198660;28;20045;-73
2022/11/01 08:09:32;;;;;;;1.42;1.13;;;;;;;21.49;48.22;101474.19;4200700;28;20094;-74
2022/11/01 08:11:36;;;;;;;1.27;1.17;;;;;;;21.46;48.25;101463.56;4198830;28;20487;-70
2022/11/01 08:13:37;;;;;;;1.83;1.13;;;;;;;21.49;48.37;101459.44;4214252;28;20052;-70
2022/11/01 08:15:41;;;;;;;2.75;1.20;;;;;;;21.49;48.39;101465.00;4201975;28;20557;-70
2022/11/01 08:17:42;;;;;;;1.45;0.90;;;;;;;21.49;48.52;101476.13;4199048;28;20028;-71
2022/11/01 08:19:44;;;;;;;2.17;1.30;;;;;;;21.49;48.34;101465.81;4198622;28;20557;-70
2022/11/01 08:21:45;;;;;;;1.38;1.02;;;;;;;21.46;48.20;101468.31;4199692;28;20033;-70
2022/11/01 08:23:46;;;;;;;1.08;0.90;;;;;;;21.49;48.45;101465.00;4198872;28;20036;-71
2022/11/01 08:25:48;;;;;;;1.30;0.95;;;;;;;21.49;48.14;101460.25;4197021;28;20041;-70
2022/11/01 08:27:49;;;;;;;1.35;1.20;;;;;;;21.48;48.32;101457.72;4199925;28;20082;-71
2022/11/01 08:29:53;;;;;;;1.17;1.00;;;;;;;21.49;48.15;101453.84;4200150;28;20045;-71
2022/11/01 08:31:54;;;;;;;1.67;1.08;;;;;;;21.49;48.04;101454.69;4198493;28;20086;-71
2022/11/01 08:33:56;;;;;;;1.13;1.02;;;;;;;21.49;48.35;101454.69;4198684;28;20074;-71
2022/11/01 08:35:57;;;;;;;1.50;1.30;;;;;;;21.50;48.25;101463.88;4198021;28;20044;-71
2022/11/01 08:37:59;;;;;;;3.30;1.60;;;;;;;21.49;48.15;101459.44;4198612;28;20087;-71
2022/11/01 08:40:03;;;;;;;1.60;1.10;;;;;;;21.49;48.17;101456.63;4189727;28;20110;-71
2022/11/01 08:42:04;;;;;;;1.40;1.10;;;;;;;21.48;48.35;101452.16;4182718;28;20049;-70
2022/11/01 08:44:08;;;;;;;2.03;0.90;;;;;;;21.49;48.17;101459.44;4184683;28;20032;-72
2022/11/01 08:46:14;;;;;;;3.17;1.00;;;;;;;21.43;48.23;101439.06;4197675;28;20094;-72
2022/11/01 08:48:16;;;;;;;1.65;1.40;;;;;;;21.50;48.03;101444.38;4201635;28;20085;-72
2022/11/01 08:50:19;;;;;;;1.67;1.15;;;;;;;21.49;48.47;101428.78;4199563;28;20446;-72
2022/11/01 08:52:26;;;;;;;1.80;1.40;;;;;;;21.48;48.26;101430.72;4210289;28;20040;-72
2022/11/01 08:54:28;;;;;;;1.88;1.17;;;;;;;21.48;48.25;101432.66;4198880;28;20090;-72
2022/11/01 08:56:36;;;;;;;1.67;1.08;;;;;;;21.48;48.39;101435.44;4198515;28;20037;-71
2022/11/01 08:58:37;;;;;;;1.80;1.17;;;;;;;21.49;48.14;101434.38;4202283;28;20047;-71
2022/11/01 09:00:38;;;;;;;1.33;1.10;;;;;;;21.49;48.51;101437.16;4197538;28;20032;-71
2022/11/01 09:02:39;;;;;;;1.98;1.25;;;;;;;21.48;48.25;101432.66;4205687;28;20110;-71
2022/11/01 09:04:41;;;;;;;1.73;1.10;;;;;;;21.48;48.37;101444.63;4195766;28;20111;-71
2022/11/01 09:06:42;;;;;;;2.60;1.13;;;;;;;21.48;48.09;101452.16;4197764;28;20048;-72
2022/11/01 09:08:43;;;;;;;1.20;1.00;;;;;;;21.47;48.32;101445.75;4199691;28;20049;-71
2022/11/01 09:10:47;;;;;;;1.70;1.20;;;;;;;21.47;48.47;101453.28;4202817;28;20066;-71
2022/11/01 09:12:49;;;;;;;1.13;0.90;;;;;;;21.44;48.55;101451.03;4187862;28;20090;-71
2022/11/01 09:14:50;;;;;;;1.80;1.15;;;;;;;21.47;48.29;101453.28;4198856;28;20376;-71
2022/11/01 09:16:51;;;;;;;1.42;1.15;;;;;;;21.48;48.47;101457.72;4198495;28;20450;-71
2022/11/01 09:19:00;;;;;;;1.65;1.30;;;;;;;21.47;48.45;101456.06;4197985;28;20078;-72
2022/11/01 09:21:01;;;;;;;2.65;1.20;;;;;;;21.46;48.44;101449.66;4196549;28;20052;-71
2022/11/01 09:23:02;;;;;;;1.70;1.27;;;;;;;21.48;48.14;101454.94;4199450;28;20138;-71
2022/11/01 09:25:05;;;;;;;2.42;1.50;;;;;;;21.36;48.60;101448.78;4198916;28;20044;-72
2022/11/01 09:27:09;;;;;;;1.27;1.02;;;;;;;21.47;48.48;101472.75;4190062;28;20048;-71
2022/11/01 09:29:10;;;;;;;2.47;1.40;;;;;;;21.39;48.20;101442.66;4198545;28;20036;-72
2022/11/01 09:31:17;;;;;;;1.38;1.10;;;;;;;21.47;48.44;101456.88;4197402;28;20045;-72
2022/11/01 09:33:23;;;;;;;1.83;1.40;;;;;;;21.47;48.40;101464.41;4197719;28;20040;-72
2022/11/01 09:35:28;;;;;;;1.33;0.90;;;;;;;21.47;48.22;101464.41;4197004;28;20044;-71
2022/11/01 09:37:32;;;;;;;1.00;0.90;;;;;;;21.47;48.37;101461.63;4199297;28;20158;-71
2022/11/01 09:39:33;;;;;;;1.20;1.10;;;;;;;21.33;48.54;101440.97;4195173;28;20085;-72
2022/11/01 09:41:46;;;;;;;1.10;1.00;;;;;;;21.45;48.49;101461.06;4200419;28;20106;-70
2022/11/01 09:43:49;;;;;;;1.38;1.15;;;;;;;21.27;48.53;101440.91;4196938;28;20036;-71
2022/11/01 09:45:53;;;;;;;1.30;0.95;;;;;;;21.43;48.35;101477.19;4196326;28;20074;-72